sensor_id;sensor_type;location;lat;lon;timestamp;noise_LAeq;noise_LA_min;noise_LA_max;noise_LA01;noise_LA95
52872;Laerm;40124;52.198;9.902;2023-12-07T00:02:21;70.38;38.21;91.32;;
52872;Laerm;40124;52.198;9.902;2023-12-07T00:04:46;52.72;34.69;70.31;;
52872;Laerm;40124;52.198;9.902;2023-12-07T00:07:11;56.83;34.31;76.30;;
52872;Laerm;40124;52.198;9.902;2023-12-07T00:09:36;40.08;36.20;47.65;;
52872;Laerm;40124;52.198;9.902;2023-12-07T00:12:01;40.24;36.20;48.21;;
52872;Laerm;40124;52.198;9.902;2023-12-07T00:14:26;39.97;36.20;50.91;;
52872;Laerm;40124;52.198;9.902;2023-12-07T00:16:52;40.99;36.20;46.05;;
52872;Laerm;40124;52.198;9.902;2023-12-07T00:19:17;42.04;39.08;49.46;;
52872;Laerm;40124;52.198;9.902;2023-12-07T00:21:42;59.73;39.21;79.12;;
52872;Laerm;40124;52.198;9.902;2023-12-07T00:24:07;55.83;36.20;75.01;;
52872;Laerm;40124;52.198;9.902;2023-12-07T00:26:33;59.19;35.36;79.63;;
52872;Laerm;40124;52.198;9.902;2023-12-07T00:28:58;39.92;35.04;61.52;;
52872;Laerm;40124;52.198;9.902;2023-12-07T00:31:23;55.66;35.66;74.73;;
52872;Laerm;40124;52.198;9.902;2023-12-07T00:33:48;39.80;36.20;46.35;;
52872;Laerm;40124;52.198;9.902;2023-12-07T00:36:13;56.72;37.70;76.27;;
52872;Laerm;40124;52.198;9.902;2023-12-07T00:38:39;41.34;38.05;46.97;;
52872;Laerm;40124;52.198;9.902;2023-12-07T00:41:04;58.76;39.08;77.78;;
52872;Laerm;40124;52.198;9.902;2023-12-07T00:43:29;43.15;38.67;52.29;;
52872;Laerm;40124;52.198;9.902;2023-12-07T00:45:54;57.40;37.32;76.39;;
52872;Laerm;40124;52.198;9.902;2023-12-07T00:48:19;62.47;36.91;84.52;;
52872;Laerm;40124;52.198;9.902;2023-12-07T00:50:44;40.35;36.91;44.35;;
52872;Laerm;40124;52.198;9.902;2023-12-07T00:53:10;58.21;35.86;78.52;;
52872;Laerm;40124;52.198;9.902;2023-12-07T00:55:35;39.67;35.94;46.45;;
52872;Laerm;40124;52.198;9.902;2023-12-07T00:58:00;40.63;37.32;45.23;;
52872;Laerm;40124;52.198;9.902;2023-12-07T01:00:26;63.81;38.67;82.88;;
52872;Laerm;40124;52.198;9.902;2023-12-07T01:02:51;57.36;40.03;76.42;;
52872;Laerm;40124;52.198;9.902;2023-12-07T01:05:16;58.35;39.70;79.16;;
52872;Laerm;40124;52.198;9.902;2023-12-07T01:07:41;46.63;39.46;70.08;;
52872;Laerm;40124;52.198;9.902;2023-12-07T01:10:07;49.58;36.69;72.08;;
52872;Laerm;40124;52.198;9.902;2023-12-07T01:12:32;39.90;35.36;43.34;;
52872;Laerm;40124;52.198;9.902;2023-12-07T01:14:57;40.63;35.94;63.30;;
52872;Laerm;40124;52.198;9.902;2023-12-07T01:17:22;58.47;37.12;77.75;;
52872;Laerm;40124;52.198;9.902;2023-12-07T01:19:47;41.67;36.45;54.33;;
52872;Laerm;40124;52.198;9.902;2023-12-07T01:22:13;62.82;37.70;80.80;;
52872;Laerm;40124;52.198;9.902;2023-12-07T01:24:38;43.16;37.70;53.45;;
52872;Laerm;40124;52.198;9.902;2023-12-07T01:27:03;42.42;38.67;45.54;;
52872;Laerm;40124;52.198;9.902;2023-12-07T01:29:28;42.27;38.81;48.21;;
52872;Laerm;40124;52.198;9.902;2023-12-07T01:31:53;58.89;39.08;78.48;;
52872;Laerm;40124;52.198;9.902;2023-12-07T01:34:18;58.05;37.70;77.79;;
52872;Laerm;40124;52.198;9.902;2023-12-07T01:36:44;41.32;37.12;51.80;;
52872;Laerm;40124;52.198;9.902;2023-12-07T01:39:09;42.04;38.67;62.26;;
52872;Laerm;40124;52.198;9.902;2023-12-07T01:41:37;41.82;38.95;48.26;;
52872;Laerm;40124;52.198;9.902;2023-12-07T01:44:02;41.60;38.21;48.21;;
52872;Laerm;40124;52.198;9.902;2023-12-07T01:46:28;41.05;37.52;54.46;;
52872;Laerm;40124;52.198;9.902;2023-12-07T01:48:54;42.33;39.08;49.10;;
52872;Laerm;40124;52.198;9.902;2023-12-07T01:51:19;42.91;39.58;66.13;;
52872;Laerm;40124;52.198;9.902;2023-12-07T01:53:45;58.58;39.46;77.89;;
52872;Laerm;40124;52.198;9.902;2023-12-07T01:56:10;55.94;37.32;77.12;;
52872;Laerm;40124;52.198;9.902;2023-12-07T01:58:37;41.10;38.05;46.18;;
52872;Laerm;40124;52.198;9.902;2023-12-07T02:01:02;40.99;38.05;50.04;;
52872;Laerm;40124;52.198;9.902;2023-12-07T02:03:29;45.18;38.05;64.01;;
52872;Laerm;40124;52.198;9.902;2023-12-07T02:05:55;63.46;38.81;82.63;;
52872;Laerm;40124;52.198;9.902;2023-12-07T02:08:20;41.22;37.12;45.54;;
52872;Laerm;40124;52.198;9.902;2023-12-07T02:10:45;41.67;37.32;46.20;;
52872;Laerm;40124;52.198;9.902;2023-12-07T02:13:11;55.12;39.81;74.43;;
52872;Laerm;40124;52.198;9.902;2023-12-07T02:15:36;54.67;39.58;74.07;;
52872;Laerm;40124;52.198;9.902;2023-12-07T02:18:16;41.54;37.12;44.66;;
52872;Laerm;40124;52.198;9.902;2023-12-07T02:20:53;39.88;35.94;47.59;;
52872;Laerm;40124;52.198;9.902;2023-12-07T02:23:20;62.38;36.69;84.26;;
52872;Laerm;40124;52.198;9.902;2023-12-07T02:25:48;68.27;37.52;85.76;;
52872;Laerm;40124;52.198;9.902;2023-12-07T02:28:15;61.12;38.21;80.67;;
52872;Laerm;40124;52.198;9.902;2023-12-07T02:30:42;40.91;37.32;47.02;;
52872;Laerm;40124;52.198;9.902;2023-12-07T02:33:07;41.32;37.88;47.12;;
52872;Laerm;40124;52.198;9.902;2023-12-07T02:35:32;42.70;40.53;46.66;;
52872;Laerm;40124;52.198;9.902;2023-12-07T02:37:57;56.70;39.46;76.36;;
52872;Laerm;40124;52.198;9.902;2023-12-07T02:40:24;61.19;40.33;82.25;;
52872;Laerm;40124;52.198;9.902;2023-12-07T02:42:50;54.65;39.08;73.60;;
52872;Laerm;40124;52.198;9.902;2023-12-07T02:45:16;44.43;38.05;56.77;;
52872;Laerm;40124;52.198;9.902;2023-12-07T02:47:41;63.65;38.52;84.60;;
52872;Laerm;40124;52.198;9.902;2023-12-07T02:50:08;54.78;39.34;74.46;;
52872;Laerm;40124;52.198;9.902;2023-12-07T02:52:33;68.19;38.67;88.26;;
52872;Laerm;40124;52.198;9.902;2023-12-07T02:54:59;54.67;38.81;72.56;;
52872;Laerm;40124;52.198;9.902;2023-12-07T02:57:24;63.44;40.89;82.64;;
52872;Laerm;40124;52.198;9.902;2023-12-07T02:59:49;57.09;40.23;75.94;;
52872;Laerm;40124;52.198;9.902;2023-12-07T03:02:14;63.36;40.13;82.53;;
52872;Laerm;40124;52.198;9.902;2023-12-07T03:04:40;41.79;37.88;46.87;;
52872;Laerm;40124;52.198;9.902;2023-12-07T03:07:05;61.24;39.34;78.20;;
52872;Laerm;40124;52.198;9.902;2023-12-07T03:09:30;65.74;38.05;82.95;;
52872;Laerm;40124;52.198;9.902;2023-12-07T03:11:55;40.64;36.69;46.33;;
52872;Laerm;40124;52.198;9.902;2023-12-07T03:14:20;48.15;37.52;66.46;;
52872;Laerm;40124;52.198;9.902;2023-12-07T03:16:45;57.13;37.88;77.24;;
52872;Laerm;40124;52.198;9.902;2023-12-07T03:19:10;40.94;37.88;47.26;;
52872;Laerm;40124;52.198;9.902;2023-12-07T03:21:39;56.72;39.92;76.59;;
52872;Laerm;40124;52.198;9.902;2023-12-07T03:24:04;60.57;40.03;80.28;;
52872;Laerm;40124;52.198;9.902;2023-12-07T03:26:30;57.97;40.23;77.02;;
52872;Laerm;40124;52.198;9.902;2023-12-07T03:28:55;59.78;37.12;80.91;;
52872;Laerm;40124;52.198;9.902;2023-12-07T03:31:20;62.22;38.67;80.20;;
52872;Laerm;40124;52.198;9.902;2023-12-07T03:33:46;62.44;39.46;79.92;;
52872;Laerm;40124;52.198;9.902;2023-12-07T03:36:11;42.16;38.81;51.74;;
52872;Laerm;40124;52.198;9.902;2023-12-07T03:38:36;61.35;39.21;82.31;;
52872;Laerm;40124;52.198;9.902;2023-12-07T03:41:02;62.28;39.21;79.23;;
52872;Laerm;40124;52.198;9.902;2023-12-07T03:43:27;59.96;38.95;81.27;;
52872;Laerm;40124;52.198;9.902;2023-12-07T03:45:52;65.05;40.80;81.35;;
52872;Laerm;40124;52.198;9.902;2023-12-07T03:48:17;69.67;40.71;87.44;;
52872;Laerm;40124;52.198;9.902;2023-12-07T03:50:42;65.24;39.46;81.34;;
52872;Laerm;40124;52.198;9.902;2023-12-07T03:53:07;65.15;39.70;80.41;;
52872;Laerm;40124;52.198;9.902;2023-12-07T03:55:32;62.31;38.81;80.65;;
52872;Laerm;40124;52.198;9.902;2023-12-07T03:57:58;62.18;39.21;80.95;;
52872;Laerm;40124;52.198;9.902;2023-12-07T04:00:23;63.73;37.70;79.77;;
52872;Laerm;40124;52.198;9.902;2023-12-07T04:02:48;65.26;40.43;82.41;;
52872;Laerm;40124;52.198;9.902;2023-12-07T04:05:13;61.91;41.61;79.25;;
52872;Laerm;40124;52.198;9.902;2023-12-07T04:07:39;66.14;41.89;85.36;;
52872;Laerm;40124;52.198;9.902;2023-12-07T04:10:04;65.49;42.59;81.88;;
52872;Laerm;40124;52.198;9.902;2023-12-07T04:12:31;66.57;42.76;82.48;;
52872;Laerm;40124;52.198;9.902;2023-12-07T04:14:56;68.39;42.03;82.55;;
52872;Laerm;40124;52.198;9.902;2023-12-07T04:17:21;71.88;41.89;91.40;;
52872;Laerm;40124;52.198;9.902;2023-12-07T04:19:46;67.70;42.71;85.31;;
52872;Laerm;40124;52.198;9.902;2023-12-07T04:22:11;70.39;41.30;89.47;;
52872;Laerm;40124;52.198;9.902;2023-12-07T04:24:37;70.09;44.43;81.74;;
52872;Laerm;40124;52.198;9.902;2023-12-07T04:27:02;68.61;40.33;82.25;;
52872;Laerm;40124;52.198;9.902;2023-12-07T04:29:27;69.83;42.09;85.12;;
52872;Laerm;40124;52.198;9.902;2023-12-07T04:31:52;68.32;42.29;81.54;;
52872;Laerm;40124;52.198;9.902;2023-12-07T04:34:17;68.70;45.97;81.15;;
52872;Laerm;40124;52.198;9.902;2023-12-07T04:36:42;68.42;45.80;81.33;;
52872;Laerm;40124;52.198;9.902;2023-12-07T04:39:07;71.87;44.35;88.11;;
52872;Laerm;40124;52.198;9.902;2023-12-07T04:41:33;67.75;42.71;86.33;;
52872;Laerm;40124;52.198;9.902;2023-12-07T04:43:58;72.10;50.08;88.05;;
52872;Laerm;40124;52.198;9.902;2023-12-07T04:46:23;69.74;43.63;84.29;;
52872;Laerm;40124;52.198;9.902;2023-12-07T04:48:48;70.63;43.04;86.34;;
52872;Laerm;40124;52.198;9.902;2023-12-07T04:51:13;68.68;42.47;83.12;;
52872;Laerm;40124;52.198;9.902;2023-12-07T04:53:39;69.84;46.87;82.13;;
52872;Laerm;40124;52.198;9.902;2023-12-07T04:56:04;69.06;40.33;82.92;;
52872;Laerm;40124;52.198;9.902;2023-12-07T04:58:29;71.18;43.58;87.15;;
52872;Laerm;40124;52.198;9.902;2023-12-07T05:00:54;69.95;40.71;88.14;;
52872;Laerm;40124;52.198;9.902;2023-12-07T05:03:20;72.42;40.98;88.35;;
52872;Laerm;40124;52.198;9.902;2023-12-07T05:05:45;70.28;42.29;83.60;;
52872;Laerm;40124;52.198;9.902;2023-12-07T05:08:10;73.38;41.89;90.82;;
52872;Laerm;40124;52.198;9.902;2023-12-07T05:10:35;72.27;44.65;87.95;;
52872;Laerm;40124;52.198;9.902;2023-12-07T05:13:01;70.19;43.63;79.91;;
52872;Laerm;40124;52.198;9.902;2023-12-07T05:15:26;68.08;44.65;80.44;;
52872;Laerm;40124;52.198;9.902;2023-12-07T05:17:51;70.45;46.35;84.41;;
52872;Laerm;40124;52.198;9.902;2023-12-07T05:20:16;71.13;44.23;83.98;;
52872;Laerm;40124;52.198;9.902;2023-12-07T05:22:43;70.29;44.69;85.09;;
52872;Laerm;40124;52.198;9.902;2023-12-07T05:25:08;70.59;42.35;83.07;;
52872;Laerm;40124;52.198;9.902;2023-12-07T05:27:34;70.00;44.97;81.00;;
52872;Laerm;40124;52.198;9.902;2023-12-07T05:29:59;70.86;45.23;82.54;;
52872;Laerm;40124;52.198;9.902;2023-12-07T05:32:24;71.67;45.83;85.25;;
52872;Laerm;40124;52.198;9.902;2023-12-07T05:34:49;68.64;43.29;81.62;;
52872;Laerm;40124;52.198;9.902;2023-12-07T05:37:15;71.93;44.35;87.86;;
52872;Laerm;40124;52.198;9.902;2023-12-07T05:39:40;71.24;44.97;82.69;;
52872;Laerm;40124;52.198;9.902;2023-12-07T05:42:05;71.59;49.80;85.62;;
52872;Laerm;40124;52.198;9.902;2023-12-07T05:44:31;73.33;43.34;87.48;;
52872;Laerm;40124;52.198;9.902;2023-12-07T05:46:56;72.65;43.49;84.64;;
52872;Laerm;40124;52.198;9.902;2023-12-07T05:49:22;72.32;48.84;85.51;;
52872;Laerm;40124;52.198;9.902;2023-12-07T05:51:48;72.90;49.96;84.14;;
52872;Laerm;40124;52.198;9.902;2023-12-07T05:54:14;71.39;49.58;85.67;;
52872;Laerm;40124;52.198;9.902;2023-12-07T05:56:39;70.60;46.52;84.26;;
52872;Laerm;40124;52.198;9.902;2023-12-07T05:59:05;70.30;42.93;81.66;;
52872;Laerm;40124;52.198;9.902;2023-12-07T06:01:31;72.14;44.73;85.18;;
52872;Laerm;40124;52.198;9.902;2023-12-07T06:03:56;70.43;45.33;83.81;;
52872;Laerm;40124;52.198;9.902;2023-12-07T06:06:22;70.04;46.82;81.16;;
52872;Laerm;40124;52.198;9.902;2023-12-07T06:08:47;73.70;57.45;84.51;;
52872;Laerm;40124;52.198;9.902;2023-12-07T06:11:12;71.90;47.10;86.07;;
52872;Laerm;40124;52.198;9.902;2023-12-07T06:13:37;71.27;48.32;86.01;;
52872;Laerm;40124;52.198;9.902;2023-12-07T06:16:03;74.09;51.84;87.42;;
52872;Laerm;40124;52.198;9.902;2023-12-07T06:18:28;71.70;56.03;82.96;;
52872;Laerm;40124;52.198;9.902;2023-12-07T06:20:53;70.44;50.96;82.99;;
52872;Laerm;40124;52.198;9.902;2023-12-07T06:23:18;72.09;50.02;85.33;;
52872;Laerm;40124;52.198;9.902;2023-12-07T06:25:44;72.05;49.30;84.59;;
52872;Laerm;40124;52.198;9.902;2023-12-07T06:28:09;70.50;49.34;81.49;;
52872;Laerm;40124;52.198;9.902;2023-12-07T06:30:34;72.88;44.87;87.16;;
52872;Laerm;40124;52.198;9.902;2023-12-07T06:32:59;73.56;54.23;87.93;;
52872;Laerm;40124;52.198;9.902;2023-12-07T06:35:25;71.44;46.35;84.47;;
52872;Laerm;40124;52.198;9.902;2023-12-07T06:37:50;71.79;54.89;82.38;;
52872;Laerm;40124;52.198;9.902;2023-12-07T06:40:15;72.08;53.89;83.82;;
52872;Laerm;40124;52.198;9.902;2023-12-07T06:42:40;74.15;52.59;85.20;;
52872;Laerm;40124;52.198;9.902;2023-12-07T06:45:06;74.02;54.27;88.07;;
52872;Laerm;40124;52.198;9.902;2023-12-07T06:47:36;72.79;48.91;84.92;;
52872;Laerm;40124;52.198;9.902;2023-12-07T06:50:01;69.72;47.95;81.56;;
52872;Laerm;40124;52.198;9.902;2023-12-07T06:52:27;72.81;51.32;84.08;;
52872;Laerm;40124;52.198;9.902;2023-12-07T06:54:52;72.86;49.72;88.01;;
52872;Laerm;40124;52.198;9.902;2023-12-07T06:57:18;73.26;50.02;87.48;;
52872;Laerm;40124;52.198;9.902;2023-12-07T06:59:43;72.70;48.31;88.07;;
52872;Laerm;40124;52.198;9.902;2023-12-07T07:02:08;69.69;43.39;84.82;;
52872;Laerm;40124;52.198;9.902;2023-12-07T07:04:33;72.18;48.15;85.10;;
52872;Laerm;40124;52.198;9.902;2023-12-07T07:06:58;71.67;49.64;84.99;;
52872;Laerm;40124;52.198;9.902;2023-12-07T07:09:23;72.17;50.60;90.23;;
52872;Laerm;40124;52.198;9.902;2023-12-07T07:11:49;69.68;45.69;81.12;;
52872;Laerm;40124;52.198;9.902;2023-12-07T07:14:14;71.17;50.31;82.63;;
52872;Laerm;40124;52.198;9.902;2023-12-07T07:16:40;72.83;50.48;83.62;;
52872;Laerm;40124;52.198;9.902;2023-12-07T07:19:06;73.08;49.45;86.41;;
52872;Laerm;40124;52.198;9.902;2023-12-07T07:21:31;70.23;45.77;82.72;;
52872;Laerm;40124;52.198;9.902;2023-12-07T07:23:56;71.36;47.72;84.27;;
52872;Laerm;40124;52.198;9.902;2023-12-07T07:26:21;71.40;47.54;82.70;;
52872;Laerm;40124;52.198;9.902;2023-12-07T07:28:46;69.20;47.28;80.01;;
52872;Laerm;40124;52.198;9.902;2023-12-07T07:31:12;68.01;46.15;83.87;;
52872;Laerm;40124;52.198;9.902;2023-12-07T07:33:37;72.00;47.02;87.71;;
52872;Laerm;40124;52.198;9.902;2023-12-07T07:36:02;68.88;45.04;79.92;;
52872;Laerm;40124;52.198;9.902;2023-12-07T07:38:27;72.79;47.26;88.60;;
52872;Laerm;40124;52.198;9.902;2023-12-07T07:40:52;69.95;51.50;81.78;;
52872;Laerm;40124;52.198;9.902;2023-12-07T07:43:17;69.02;42.71;84.78;;
52872;Laerm;40124;52.198;9.902;2023-12-07T07:45:43;72.30;56.00;86.82;;
52872;Laerm;40124;52.198;9.902;2023-12-07T07:48:08;65.51;44.51;78.20;;
52872;Laerm;40124;52.198;9.902;2023-12-07T07:50:33;73.06;43.60;85.54;;
52872;Laerm;40124;52.198;9.902;2023-12-07T07:53:01;69.55;45.39;81.93;;
52872;Laerm;40124;52.198;9.902;2023-12-07T07:55:26;68.03;46.45;82.80;;
52872;Laerm;40124;52.198;9.902;2023-12-07T07:57:51;71.24;51.49;84.09;;
52872;Laerm;40124;52.198;9.902;2023-12-07T08:00:16;68.94;45.20;84.76;;
52872;Laerm;40124;52.198;9.902;2023-12-07T08:02:42;69.86;43.24;83.70;;
52872;Laerm;40124;52.198;9.902;2023-12-07T08:05:07;68.84;43.68;82.98;;
52872;Laerm;40124;52.198;9.902;2023-12-07T08:07:33;71.67;44.94;89.28;;
52872;Laerm;40124;52.198;9.902;2023-12-07T08:09:58;67.77;43.58;80.09;;
52872;Laerm;40124;52.198;9.902;2023-12-07T08:12:26;70.17;50.89;84.03;;
52872;Laerm;40124;52.198;9.902;2023-12-07T08:14:51;67.75;41.38;82.05;;
52872;Laerm;40124;52.198;9.902;2023-12-07T08:17:16;68.50;50.77;80.94;;
52872;Laerm;40124;52.198;9.902;2023-12-07T08:19:42;70.29;52.21;85.72;;
52872;Laerm;40124;52.198;9.902;2023-12-07T08:22:07;68.73;44.62;82.50;;
52872;Laerm;40124;52.198;9.902;2023-12-07T08:24:33;69.29;49.41;79.73;;
52872;Laerm;40124;52.198;9.902;2023-12-07T08:26:58;67.26;43.63;83.40;;
52872;Laerm;40124;52.198;9.902;2023-12-07T08:29:23;70.61;47.38;85.66;;
52872;Laerm;40124;52.198;9.902;2023-12-07T08:31:48;68.67;46.10;81.06;;
52872;Laerm;40124;52.198;9.902;2023-12-07T08:34:13;64.57;43.54;78.37;;
52872;Laerm;40124;52.198;9.902;2023-12-07T08:36:39;71.83;51.79;90.12;;
52872;Laerm;40124;52.198;9.902;2023-12-07T08:39:04;68.76;42.29;84.25;;
52872;Laerm;40124;52.198;9.902;2023-12-07T08:41:34;70.44;46.84;85.97;;
52872;Laerm;40124;52.198;9.902;2023-12-07T08:43:59;69.80;53.23;85.17;;
52872;Laerm;40124;52.198;9.902;2023-12-07T08:46:24;70.78;45.83;84.30;;
52872;Laerm;40124;52.198;9.902;2023-12-07T08:48:50;70.35;46.02;84.46;;
52872;Laerm;40124;52.198;9.902;2023-12-07T08:51:15;71.99;47.02;87.14;;
52872;Laerm;40124;52.198;9.902;2023-12-07T08:53:40;71.56;43.34;86.11;;
52872;Laerm;40124;52.198;9.902;2023-12-07T08:56:05;67.04;43.90;81.59;;
52872;Laerm;40124;52.198;9.902;2023-12-07T08:58:30;68.58;42.71;81.52;;
52872;Laerm;40124;52.198;9.902;2023-12-07T09:00:56;71.64;43.68;87.94;;
52872;Laerm;40124;52.198;9.902;2023-12-07T09:03:21;67.61;44.73;80.95;;
52872;Laerm;40124;52.198;9.902;2023-12-07T09:05:50;69.09;41.61;85.71;;
52872;Laerm;40124;52.198;9.902;2023-12-07T09:08:15;70.84;46.48;85.05;;
52872;Laerm;40124;52.198;9.902;2023-12-07T09:10:41;66.61;45.07;78.14;;
52872;Laerm;40124;52.198;9.902;2023-12-07T09:13:06;67.05;41.82;81.02;;
52872;Laerm;40124;52.198;9.902;2023-12-07T09:15:31;68.37;42.03;82.25;;
52872;Laerm;40124;52.198;9.902;2023-12-07T09:17:56;68.36;44.54;85.70;;
52872;Laerm;40124;52.198;9.902;2023-12-07T09:20:22;71.03;44.35;86.49;;
52872;Laerm;40124;52.198;9.902;2023-12-07T09:22:47;66.64;45.89;80.29;;
52872;Laerm;40124;52.198;9.902;2023-12-07T09:25:13;71.73;43.90;89.68;;
52872;Laerm;40124;52.198;9.902;2023-12-07T09:27:40;73.85;49.57;90.48;;
52872;Laerm;40124;52.198;9.902;2023-12-07T09:30:08;67.42;51.83;78.48;;
52872;Laerm;40124;52.198;9.902;2023-12-07T09:32:37;68.11;49.60;81.28;;
52872;Laerm;40124;52.198;9.902;2023-12-07T09:35:06;72.88;52.07;86.72;;
52872;Laerm;40124;52.198;9.902;2023-12-07T09:37:32;68.50;47.22;81.67;;
52872;Laerm;40124;52.198;9.902;2023-12-07T09:39:57;71.88;54.07;85.66;;
52872;Laerm;40124;52.198;9.902;2023-12-07T09:42:22;69.65;47.28;83.66;;
52872;Laerm;40124;52.198;9.902;2023-12-07T09:44:47;68.87;44.03;81.26;;
52872;Laerm;40124;52.198;9.902;2023-12-07T09:47:13;68.79;45.33;79.79;;
52872;Laerm;40124;52.198;9.902;2023-12-07T09:49:39;70.54;47.44;85.46;;
52872;Laerm;40124;52.198;9.902;2023-12-07T09:52:05;68.67;45.72;81.30;;
52872;Laerm;40124;52.198;9.902;2023-12-07T09:54:32;69.03;44.11;80.51;;
52872;Laerm;40124;52.198;9.902;2023-12-07T09:56:57;70.39;48.70;83.95;;
52872;Laerm;40124;52.198;9.902;2023-12-07T09:59:22;68.76;44.07;79.49;;
52872;Laerm;40124;52.198;9.902;2023-12-07T10:01:47;71.19;45.77;84.74;;
52872;Laerm;40124;52.198;9.902;2023-12-07T10:04:16;71.57;52.76;87.82;;
52872;Laerm;40124;52.198;9.902;2023-12-07T10:06:43;66.39;41.82;80.77;;
52872;Laerm;40124;52.198;9.902;2023-12-07T10:09:12;68.85;43.39;82.32;;
52872;Laerm;40124;52.198;9.902;2023-12-07T10:11:38;72.53;52.06;89.13;;
52872;Laerm;40124;52.198;9.902;2023-12-07T10:14:05;69.09;50.45;83.25;;
52872;Laerm;40124;52.198;9.902;2023-12-07T10:16:30;68.57;43.24;81.99;;
52872;Laerm;40124;52.198;9.902;2023-12-07T10:19:07;72.75;52.15;86.35;;
52872;Laerm;40124;52.198;9.902;2023-12-07T10:21:37;71.73;46.45;89.19;;
52872;Laerm;40124;52.198;9.902;2023-12-07T10:24:02;71.02;50.34;83.37;;
52872;Laerm;40124;52.198;9.902;2023-12-07T10:26:28;69.11;47.10;80.10;;
52872;Laerm;40124;52.198;9.902;2023-12-07T10:28:53;71.02;47.86;86.01;;
52872;Laerm;40124;52.198;9.902;2023-12-07T10:31:19;67.35;44.87;79.57;;
52872;Laerm;40124;52.198;9.902;2023-12-07T10:33:48;66.74;42.76;79.51;;
52872;Laerm;40124;52.198;9.902;2023-12-07T10:36:13;67.80;43.44;79.81;;
52872;Laerm;40124;52.198;9.902;2023-12-07T10:38:38;68.46;42.76;83.03;;
52872;Laerm;40124;52.198;9.902;2023-12-07T10:41:06;68.70;45.30;79.33;;
52872;Laerm;40124;52.198;9.902;2023-12-07T10:43:37;67.44;43.72;81.08;;
52872;Laerm;40124;52.198;9.902;2023-12-07T10:46:03;70.91;47.61;85.41;;
52872;Laerm;40124;52.198;9.902;2023-12-07T10:48:30;69.47;43.94;82.79;;
52872;Laerm;40124;52.198;9.902;2023-12-07T10:50:56;69.18;44.19;83.65;;
52872;Laerm;40124;52.198;9.902;2023-12-07T10:53:28;67.97;43.49;79.61;;
52872;Laerm;40124;52.198;9.902;2023-12-07T10:55:55;69.02;43.72;83.98;;
52872;Laerm;40124;52.198;9.902;2023-12-07T10:58:21;70.81;51.41;84.01;;
52872;Laerm;40124;52.198;9.902;2023-12-07T11:00:47;71.37;51.41;86.07;;
52872;Laerm;40124;52.198;9.902;2023-12-07T11:03:16;68.24;43.81;81.26;;
52872;Laerm;40124;52.198;9.902;2023-12-07T11:05:45;70.56;46.35;84.89;;
52872;Laerm;40124;52.198;9.902;2023-12-07T11:15:33;71.24;44.86;84.98;;
52872;Laerm;40124;52.198;9.902;2023-12-07T11:17:59;70.68;44.76;81.38;;
52872;Laerm;40124;52.198;9.902;2023-12-07T11:20:31;65.75;43.19;80.61;;
52872;Laerm;40124;52.198;9.902;2023-12-07T11:22:57;73.02;45.23;90.97;;
52872;Laerm;40124;52.198;9.902;2023-12-07T11:25:22;69.58;43.04;84.11;;
52872;Laerm;40124;52.198;9.902;2023-12-07T11:27:47;69.96;45.75;81.06;;
52872;Laerm;40124;52.198;9.902;2023-12-07T11:30:16;69.86;49.19;81.95;;
52872;Laerm;40124;52.198;9.902;2023-12-07T11:32:41;67.26;46.02;78.93;;
52872;Laerm;40124;52.198;9.902;2023-12-07T11:35:11;69.25;44.19;85.64;;
52872;Laerm;40124;52.198;9.902;2023-12-07T11:37:59;70.25;44.07;83.26;;
52872;Laerm;40124;52.198;9.902;2023-12-07T11:40:25;70.26;48.71;82.89;;
52872;Laerm;40124;52.198;9.902;2023-12-07T11:42:50;70.54;45.42;83.27;;
52872;Laerm;40124;52.198;9.902;2023-12-07T11:45:23;68.03;41.89;80.02;;
52872;Laerm;40124;52.198;9.902;2023-12-07T11:48:09;71.59;47.90;83.78;;
52872;Laerm;40124;52.198;9.902;2023-12-07T11:50:35;75.28;43.39;96.45;;
52872;Laerm;40124;52.198;9.902;2023-12-07T11:53:00;71.65;49.03;86.09;;
52872;Laerm;40124;52.198;9.902;2023-12-07T11:55:25;72.63;46.29;88.67;;
52872;Laerm;40124;52.198;9.902;2023-12-07T11:57:50;70.33;48.16;83.25;;
52872;Laerm;40124;52.198;9.902;2023-12-07T12:00:15;71.76;47.00;81.48;;
52872;Laerm;40124;52.198;9.902;2023-12-07T12:02:41;70.01;46.52;83.89;;
52872;Laerm;40124;52.198;9.902;2023-12-07T12:05:07;72.82;43.72;87.28;;
52872;Laerm;40124;52.198;9.902;2023-12-07T12:07:33;72.69;45.86;86.07;;
52872;Laerm;40124;52.198;9.902;2023-12-07T12:10:01;70.53;47.40;81.55;;
52872;Laerm;40124;52.198;9.902;2023-12-07T12:12:28;73.41;53.16;88.39;;
52872;Laerm;40124;52.198;9.902;2023-12-07T12:14:54;69.97;44.43;84.74;;
52872;Laerm;40124;52.198;9.902;2023-12-07T12:17:19;71.34;42.71;86.52;;
52872;Laerm;40124;52.198;9.902;2023-12-07T12:19:45;69.71;45.04;83.22;;
52872;Laerm;40124;52.198;9.902;2023-12-07T12:22:10;72.43;54.11;85.21;;
52872;Laerm;40124;52.198;9.902;2023-12-07T12:24:35;69.60;52.53;84.19;;
52872;Laerm;40124;52.198;9.902;2023-12-07T12:27:01;70.56;51.26;81.58;;
52872;Laerm;40124;52.198;9.902;2023-12-07T12:29:28;71.72;49.23;81.81;;
52872;Laerm;40124;52.198;9.902;2023-12-07T12:31:53;75.57;54.34;89.16;;
52872;Laerm;40124;52.198;9.902;2023-12-07T12:34:20;72.01;48.46;87.07;;
52872;Laerm;40124;52.198;9.902;2023-12-07T12:36:45;72.81;49.52;85.71;;
52872;Laerm;40124;52.198;9.902;2023-12-07T12:39:11;70.09;43.54;81.58;;
52872;Laerm;40124;52.198;9.902;2023-12-07T12:41:36;73.59;46.58;85.49;;
52872;Laerm;40124;52.198;9.902;2023-12-07T12:44:01;71.81;47.38;86.67;;
52872;Laerm;40124;52.198;9.902;2023-12-07T12:46:26;69.91;46.43;81.24;;
52872;Laerm;40124;52.198;9.902;2023-12-07T12:48:52;73.62;45.01;91.96;;
52872;Laerm;40124;52.198;9.902;2023-12-07T12:51:18;72.48;46.41;85.94;;
52872;Laerm;40124;52.198;9.902;2023-12-07T12:53:44;71.73;43.94;85.41;;
52872;Laerm;40124;52.198;9.902;2023-12-07T12:56:10;70.89;44.19;85.23;;
52872;Laerm;40124;52.198;9.902;2023-12-07T12:58:35;70.23;48.02;82.40;;
52872;Laerm;40124;52.198;9.902;2023-12-07T13:01:01;73.91;44.76;87.14;;
52872;Laerm;40124;52.198;9.902;2023-12-07T13:03:28;70.82;41.61;86.34;;
52872;Laerm;40124;52.198;9.902;2023-12-07T13:05:53;71.95;48.05;82.22;;
52872;Laerm;40124;52.198;9.902;2023-12-07T13:08:18;71.22;48.81;86.12;;
52872;Laerm;40124;52.198;9.902;2023-12-07T13:10:43;70.57;49.17;84.09;;
52872;Laerm;40124;52.198;9.902;2023-12-07T13:13:09;75.40;49.02;96.33;;
52872;Laerm;40124;52.198;9.902;2023-12-07T13:15:34;71.91;48.88;84.97;;
52872;Laerm;40124;52.198;9.902;2023-12-07T13:17:59;71.60;44.73;82.46;;
52872;Laerm;40124;52.198;9.902;2023-12-07T13:20:24;74.72;49.27;92.63;;
52872;Laerm;40124;52.198;9.902;2023-12-07T13:22:49;71.67;44.73;90.22;;
52872;Laerm;40124;52.198;9.902;2023-12-07T13:25:15;71.45;47.08;85.64;;
52872;Laerm;40124;52.198;9.902;2023-12-07T13:27:40;70.97;48.76;82.48;;
52872;Laerm;40124;52.198;9.902;2023-12-07T13:30:05;72.87;55.04;85.50;;
52872;Laerm;40124;52.198;9.902;2023-12-07T13:32:34;71.86;49.45;86.13;;
52872;Laerm;40124;52.198;9.902;2023-12-07T13:35:02;71.09;47.02;82.73;;
52872;Laerm;40124;52.198;9.902;2023-12-07T13:37:27;70.84;43.29;81.23;;
52872;Laerm;40124;52.198;9.902;2023-12-07T13:39:52;73.38;47.36;87.43;;
52872;Laerm;40124;52.198;9.902;2023-12-07T13:42:22;71.21;44.19;85.26;;
52872;Laerm;40124;52.198;9.902;2023-12-07T13:44:51;72.10;43.63;88.16;;